EKSP/SKS METAR and TAF weather

Enter ICAO airport designator
Station Type Date Time Source
EKSP METAR 2021/04/13 06:50 UTC NOAA

EKSP 130650Z 28015KT 9999 FEW018CB SCT022 05/02 Q1024 TEMPO 28015G25KT 6000 -SHRAGS SCT020CB


Station Type Date Time Source
EKSP Decoded METAR 2021/04/13 06:50 UTC NOAA

Skrydstrup, Denmark (EKSP) 55-14N 009-16E 47M
Apr 13, 2021 - 02:50 AM EDT / 2021.04.13 0650 UTC
Wind: from the W (280 degrees) at 17 MPH (15 KT):0
Visibility: greater than 7 mile(s):0
Sky conditions: partly cloudy
Weather: Cumulonimbus clouds observed
Temperature: 41 F (5 C)
Dew Point: 35 F (2 C)
Relative Humidity: 80%
Pressure (altimeter): 30.24 in. Hg (1024 hPa)
ob: EKSP 130650Z 28015KT 9999 FEW018CB SCT022 05/02 Q1024 TEMPO 28015G25KT 6000 -SHRAGS SCT020CB
cycle: 7

Station Type Date Time Source
EKSP TAF 2021/04/13 06:30 UTC NOAA

TAF EKSP 130505Z 1306/1406 24010KT 9999 SCT020TCU
BECMG 1306/1309 29018G28KT
TEMPO 1306/1315 4000 -SHRAGS SCT015CB
BECMG 1315/1318 30012KT

Example: see airport list